Time;durP1;ratioP1;P1;durP2;ratioP2;P2;SDS_P1;SDS_P2;PMS_P1;PMS_P2;Temp;Humidity;BMP_temperature;BMP_pressure;BME280_temperature;BME280_humidity;BME280_pressure;Samples;Min_cycle;Max_cycle;Signal;HPM_P1;HPM_P2
2022/03/20 00:01:13;;;;;;;3.95;2.60;;;19.60;45.50;;;;;;6202293;28;20037;-68
2022/03/20 00:04:14;;;;;;;5.35;2.78;;;19.60;45.50;;;;;;6201733;28;20026;-68
2022/03/20 00:07:14;;;;;;;4.10;2.75;;;19.60;45.50;;;;;;6201736;28;20338;-68
2022/03/20 00:10:16;;;;;;;4.47;2.80;;;19.60;45.60;;;;;;6201934;28;20030;-68
2022/03/20 00:13:19;;;;;;;4.35;2.88;;;19.60;45.60;;;;;;6201810;28;20335;-68
2022/03/20 00:16:20;;;;;;;3.92;2.65;;;19.60;45.60;;;;;;6201630;28;20050;-68
2022/03/20 00:19:20;;;;;;;4.57;2.80;;;19.60;45.60;;;;;;6201599;28;20066;-68
2022/03/20 00:22:21;;;;;;;4.75;3.13;;;19.60;45.50;;;;;;6201361;28;20038;-68
2022/03/20 00:25:22;;;;;;;3.53;2.63;;;19.60;45.40;;;;;;6201159;28;20042;-68
2022/03/20 00:28:25;;;;;;;4.95;2.90;;;19.60;45.40;;;;;;6201011;28;20054;-68
2022/03/20 00:31:25;;;;;;;4.30;2.75;;;19.50;45.40;;;;;;6201173;28;20034;-68
2022/03/20 00:34:26;;;;;;;4.35;3.13;;;19.50;45.60;;;;;;6201576;28;20037;-68
2022/03/20 00:37:27;;;;;;;4.18;2.90;;;19.50;45.50;;;;;;6201705;28;20038;-68
2022/03/20 00:40:29;;;;;;;3.88;2.67;;;19.50;45.50;;;;;;6200979;28;20412;-68
2022/03/20 00:43:29;;;;;;;3.45;2.47;;;19.50;45.60;;;;;;6201496;28;20034;-68
2022/03/20 00:46:30;;;;;;;6.60;2.70;;;19.50;45.60;;;;;;6201878;28;20061;-68
2022/03/20 00:49:31;;;;;;;4.45;3.05;;;19.50;45.50;;;;;;6201256;28;20030;-68
2022/03/20 00:52:32;;;;;;;3.90;2.88;;;19.50;45.60;;;;;;6201062;28;20032;-68
2022/03/20 00:55:32;;;;;;;3.90;2.28;;;19.50;45.60;;;;;;6199954;28;20034;-68
2022/03/20 00:58:33;;;;;;;5.28;3.13;;;19.50;45.50;;;;;;6198897;28;20026;-68
2022/03/20 01:01:34;;;;;;;5.15;3.00;;;19.50;45.60;;;;;;6196785;28;20031;-68
2022/03/20 01:04:35;;;;;;;3.97;2.50;;;19.50;45.60;;;;;;6197062;28;20034;-68
2022/03/20 01:07:37;;;;;;;5.85;3.00;;;19.50;45.60;;;;;;6197292;28;20157;-68
2022/03/20 01:10:38;;;;;;;4.40;3.10;;;19.50;45.60;;;;;;6197312;28;20084;-68
2022/03/20 01:13:38;;;;;;;5.07;2.83;;;19.50;45.60;;;;;;6196763;28;20062;-68
2022/03/20 01:16:39;;;;;;;3.08;2.50;;;19.50;45.60;;;;;;6197555;28;20401;-68
2022/03/20 01:19:39;;;;;;;6.88;2.83;;;19.50;45.60;;;;;;6196661;28;20037;-68
2022/03/20 01:22:40;;;;;;;3.58;2.55;;;19.50;45.60;;;;;;6197043;28;20417;-68
2022/03/20 01:25:41;;;;;;;3.08;2.50;;;19.50;45.40;;;;;;6196541;28;20049;-68
2022/03/20 01:28:41;;;;;;;3.45;2.58;;;19.50;45.30;;;;;;6196293;28;20030;-68
2022/03/20 01:31:42;;;;;;;4.78;2.60;;;19.50;45.40;;;;;;6197111;28;20026;-67
2022/03/20 01:34:43;;;;;;;3.70;2.67;;;19.50;45.30;;;;;;6196940;28;20014;-68
2022/03/20 01:37:43;;;;;;;4.93;3.10;;;19.50;45.50;;;;;;6196766;28;20018;-68
2022/03/20 01:40:44;;;;;;;4.53;2.72;;;19.50;45.40;;;;;;6196575;28;20166;-68
2022/03/20 01:43:59;;;;;;;3.67;2.70;;;19.50;45.50;;;;;;6196193;28;20057;-68
2022/03/20 01:46:59;;;;;;;4.87;3.23;;;19.50;45.50;;;;;;6196438;28;20251;-68
2022/03/20 01:50:00;;;;;;;3.28;2.47;;;19.50;45.40;;;;;;6196274;28;20420;-68
2022/03/20 01:53:01;;;;;;;4.47;2.95;;;19.50;45.40;;;;;;6195949;28;20552;-69
2022/03/20 01:56:02;;;;;;;3.88;2.80;;;19.50;45.40;;;;;;6194580;28;20441;-69
2022/03/20 01:59:03;;;;;;;8.43;3.25;;;19.50;45.40;;;;;;6195882;28;20022;-69
2022/03/20 02:02:04;;;;;;;4.15;2.97;;;19.50;45.40;;;;;;6195398;28;20035;-69
2022/03/20 02:05:09;;;;;;;5.65;2.90;;;19.50;45.50;;;;;;6195785;28;20407;-69
2022/03/20 02:08:11;;;;;;;;;;;19.50;45.40;;;;;;6196543;28;20042;-69
2022/03/20 02:11:12;;;;;;;4.05;2.95;;;19.50;45.40;;;;;;6210620;28;19913;-69
2022/03/20 02:14:13;;;;;;;5.05;2.97;;;19.50;45.50;;;;;;6195602;28;20018;-69
2022/03/20 02:17:13;;;;;;;3.95;2.80;;;19.50;45.50;;;;;;6195761;28;20096;-69
2022/03/20 02:20:14;;;;;;;4.75;3.05;;;19.50;45.40;;;;;;6195396;28;20090;-69
2022/03/20 02:23:15;;;;;;;4.45;3.00;;;19.50;45.50;;;;;;6195653;28;20445;-69
2022/03/20 02:26:16;;;;;;;3.85;2.75;;;19.50;46.10;;;;;;6195315;28;20060;-69
2022/03/20 02:29:16;;;;;;;4.13;2.75;;;19.50;45.50;;;;;;6195677;28;20058;-69
2022/03/20 02:32:19;;;;;;;3.50;2.65;;;19.50;45.50;;;;;;6196135;28;20037;-69
2022/03/20 02:35:20;;;;;;;3.65;2.65;;;19.50;45.50;;;;;;6195445;28;20251;-69
2022/03/20 02:38:21;;;;;;;4.53;2.70;;;19.50;45.50;;;;;;6195101;28;20077;-69
2022/03/20 02:41:23;;;;;;;4.07;2.75;;;19.50;45.50;;;;;;6195394;28;20607;-69
2022/03/20 02:44:46;;;;;;;5.20;3.00;;;19.50;45.40;;;;;;6194448;28;20034;-69
2022/03/20 02:47:49;;;;;;;4.65;3.08;;;19.50;45.40;;;;;;6194749;28;20058;-69
2022/03/20 02:50:49;;;;;;;6.32;3.08;;;19.50;45.40;;;;;;6194720;28;20130;-68
2022/03/20 02:53:50;;;;;;;4.38;3.05;;;19.50;45.40;;;;;;6195140;28;20031;-69
2022/03/20 02:56:52;;;;;;;4.93;3.00;;;19.50;45.40;;;;;;6194931;28;20093;-69
2022/03/20 02:59:52;;;;;;;4.43;2.85;;;19.50;45.50;;;;;;6194441;28;20418;-69
2022/03/20 03:02:55;;;;;;;4.60;2.83;;;19.50;45.40;;;;;;6194456;28;20053;-69
2022/03/20 03:05:56;;;;;;;4.25;2.65;;;19.50;45.40;;;;;;6194749;28;20030;-69
2022/03/20 03:12:16;;;;;;;4.38;2.92;;;19.50;45.50;;;;;;6194593;28;20026;-69
2022/03/20 03:15:19;;;;;;;3.92;2.65;;;19.50;45.50;;;;;;6194430;28;20045;-69
2022/03/20 03:18:20;;;;;;;3.88;2.80;;;19.50;45.50;;;;;;6194235;28;20579;-69
2022/03/20 03:21:21;;;;;;;4.25;2.85;;;19.50;45.60;;;;;;6193999;28;20501;-69
2022/03/20 03:24:21;;;;;;;4.13;2.92;;;19.50;45.50;;;;;;6193680;28;20037;-69
2022/03/20 03:27:22;;;;;;;4.82;2.65;;;19.50;45.30;;;;;;6194109;28;20441;-69
2022/03/20 03:30:23;;;;;;;5.22;3.13;;;19.50;45.40;;;;;;6194180;28;20236;-69
2022/03/20 03:33:23;;;;;;;5.93;3.45;;;19.50;45.50;;;;;;6194281;28;20460;-69
2022/03/20 03:36:25;;;;;;;5.60;3.08;;;19.50;45.30;;;;;;6194043;28;20394;-69
2022/03/20 03:39:25;;;;;;;5.75;3.38;;;19.50;45.30;;;;;;6193821;28;20125;-69
2022/03/20 03:42:26;;;;;;;4.95;3.22;;;19.50;45.40;;;;;;6194169;28;20038;-69
2022/03/20 03:45:27;;;;;;;3.97;2.95;;;19.50;45.40;;;;;;6194492;28;20030;-69
2022/03/20 03:48:27;;;;;;;3.65;2.60;;;19.50;45.40;;;;;;6193721;28;20069;-69
2022/03/20 03:51:28;;;;;;;4.65;3.17;;;19.50;45.40;;;;;;6193833;28;20034;-69
2022/03/20 03:54:29;;;;;;;5.78;3.30;;;19.50;45.30;;;;;;6193960;28;20028;-69
2022/03/20 03:57:29;;;;;;;5.43;3.13;;;19.50;45.50;;;;;;6193501;28;20070;-69
2022/03/20 04:00:32;;;;;;;5.13;3.05;;;19.50;45.40;;;;;;6193698;28;20034;-69
2022/03/20 04:03:33;;;;;;;4.57;3.17;;;19.50;45.40;;;;;;6193605;28;20046;-69
2022/03/20 04:06:34;;;;;;;5.05;3.35;;;19.50;45.30;;;;;;6193665;28;20118;-69
2022/03/20 04:09:36;;;;;;;5.35;3.00;;;19.50;45.40;;;;;;6193400;28;20319;-69
2022/03/20 04:12:40;;;;;;;5.00;3.35;;;19.50;45.40;;;;;;6193682;28;20093;-69
2022/03/20 04:15:41;;;;;;;4.05;2.80;;;19.50;45.50;;;;;;6193441;28;20109;-69
2022/03/20 04:18:42;;;;;;;5.40;3.63;;;19.50;45.40;;;;;;6193154;28;20030;-69
2022/03/20 04:21:43;;;;;;;3.80;2.97;;;19.50;45.50;;;;;;6193881;28;20385;-69
2022/03/20 04:24:43;;;;;;;4.38;3.08;;;19.50;45.40;;;;;;6193255;28;20057;-69
2022/03/20 04:27:44;;;;;;;3.88;2.85;;;19.50;45.60;;;;;;6193264;28;20058;-69
2022/03/20 04:30:44;;;;;;;4.70;3.10;;;19.50;45.40;;;;;;6192960;28;20026;-69
2022/03/20 04:33:48;;;;;;;4.85;3.22;;;19.50;45.50;;;;;;6195148;28;20026;-69
2022/03/20 04:36:48;;;;;;;4.22;2.78;;;19.50;45.30;;;;;;6198085;28;20033;-69
2022/03/20 04:39:49;;;;;;;4.63;3.08;;;19.50;45.40;;;;;;6197625;28;20026;-69
2022/03/20 04:42:49;;;;;;;4.57;2.95;;;19.50;45.40;;;;;;6197776;28;20335;-69
2022/03/20 04:45:51;;;;;;;5.00;3.50;;;19.40;45.30;;;;;;6197501;28;20027;-69
2022/03/20 04:58:49;;;;;;;4.15;3.08;;;19.50;45.40;;;;;;6197200;28;20493;-69
2022/03/20 05:01:50;;;;;;;5.20;3.38;;;19.50;45.40;;;;;;6197453;28;20053;-69
2022/03/20 05:04:51;;;;;;;5.35;3.28;;;19.40;45.20;;;;;;6197341;28;20038;-69
2022/03/20 05:07:52;;;;;;;4.90;3.25;;;19.50;45.30;;;;;;6197232;28;20120;-69
2022/03/20 05:14:11;;;;;;;4.05;2.92;;;19.50;45.50;;;;;;6197212;28;20057;-69
2022/03/20 05:17:12;;;;;;;5.72;3.47;;;19.50;45.40;;;;;;6197331;28;20048;-68
2022/03/20 05:20:12;;;;;;;4.07;2.97;;;19.50;45.50;;;;;;6197492;28;20102;-69
2022/03/20 05:23:13;;;;;;;5.35;3.17;;;19.50;45.40;;;;;;6196924;28;20579;-69
2022/03/20 05:26:14;;;;;;;4.65;2.97;;;19.40;45.30;;;;;;6196905;28;20053;-69
2022/03/20 05:29:14;;;;;;;5.40;3.13;;;19.50;45.40;;;;;;6196992;28;20030;-69
2022/03/20 05:32:15;;;;;;;5.03;3.15;;;19.50;45.40;;;;;;6196452;28;20456;-69
2022/03/20 05:35:16;;;;;;;4.72;2.92;;;19.40;45.30;;;;;;6196891;28;20044;-69
2022/03/20 05:38:17;;;;;;;5.25;3.40;;;19.40;45.30;;;;;;6196476;28;20018;-69
2022/03/20 05:44:37;;;;;;;5.82;2.85;;;19.50;45.40;;;;;;6196152;28;20034;-69
2022/03/20 05:47:39;;;;;;;4.70;3.40;;;19.50;45.40;;;;;;6196564;28;20381;-69
2022/03/20 05:50:40;;;;;;;5.30;3.33;;;19.40;45.40;;;;;;6196191;28;20096;-69
2022/03/20 05:53:41;;;;;;;4.05;3.22;;;19.40;45.40;;;;;;6195728;28;20031;-69
2022/03/20 06:00:04;;;;;;;5.90;3.17;;;19.40;45.30;;;;;;6195839;28;20023;-69
2022/03/20 06:03:04;;;;;;;5.88;3.17;;;19.50;45.40;;;;;;6177688;28;20129;-69
2022/03/20 06:06:07;;;;;;;4.25;2.95;;;19.40;45.30;;;;;;6172200;28;20473;-69
2022/03/20 06:09:07;;;;;;;5.68;3.22;;;19.40;45.30;;;;;;6171898;28;20027;-69
2022/03/20 06:12:09;;;;;;;4.60;2.90;;;19.40;45.30;;;;;;6172702;28;20434;-69
2022/03/20 06:15:10;;;;;;;5.90;3.17;;;19.40;45.30;;;;;;6171698;28;20276;-69
2022/03/20 06:18:12;;;;;;;5.00;3.42;;;19.40;45.30;;;;;;6187448;28;20065;-69
2022/03/20 06:21:13;;;;;;;5.43;3.28;;;19.50;45.30;;;;;;6195636;28;20036;-69
2022/03/20 06:24:13;;;;;;;5.82;3.88;;;19.40;45.40;;;;;;6195528;28;20038;-69
2022/03/20 06:27:13;;;;;;;5.22;2.78;;;19.40;45.30;;;;;;6194602;28;20652;-69
2022/03/20 06:30:16;;;;;;;4.57;3.05;;;19.50;45.40;;;;;;6195052;28;20502;-69
2022/03/20 06:33:16;;;;;;;4.35;3.08;;;19.40;45.30;;;;;;6195071;28;20054;-69
2022/03/20 06:36:17;;;;;;;4.60;3.15;;;19.40;45.30;;;;;;6195332;28;20418;-69
2022/03/20 06:39:17;;;;;;;6.13;3.45;;;19.50;45.40;;;;;;6195556;28;20022;-69
2022/03/20 06:42:18;;;;;;;4.95;3.30;;;19.40;45.30;;;;;;6195119;28;20074;-69
2022/03/20 06:45:20;;;;;;;5.57;3.33;;;19.40;45.40;;;;;;6194971;28;20030;-69
2022/03/20 06:48:20;;;;;;;4.88;2.95;;;19.40;45.30;;;;;;6194897;28;20046;-69
2022/03/20 06:51:22;;;;;;;5.47;3.50;;;19.40;45.40;;;;;;6194790;28;20048;-69
2022/03/20 06:54:22;;;;;;;4.63;2.92;;;19.40;45.40;;;;;;6194726;28;20025;-69
2022/03/20 06:57:23;;;;;;;5.60;3.30;;;19.40;45.30;;;;;;6194149;28;20489;-69
2022/03/20 07:00:31;;;;;;;5.07;3.33;;;19.40;45.40;;;;;;6194721;28;20096;-69
2022/03/20 07:03:31;;;;;;;5.20;3.53;;;19.40;45.40;;;;;;6195134;28;20030;-69
2022/03/20 07:06:33;;;;;;;6.00;3.25;;;19.40;45.30;;;;;;6194418;28;20030;-69
2022/03/20 07:09:34;;;;;;;4.70;3.20;;;19.40;45.30;;;;;;6194334;28;20393;-69
2022/03/20 07:12:35;;;;;;;4.90;3.28;;;19.50;45.40;;;;;;6194468;28;20026;-69
2022/03/20 07:15:35;;;;;;;4.32;2.97;;;19.40;45.40;;;;;;6194392;28;20085;-68
2022/03/20 07:18:36;;;;;;;4.57;3.25;;;19.40;45.30;;;;;;6194296;28;20493;-69
2022/03/20 07:21:37;;;;;;;4.97;3.33;;;19.40;45.40;;;;;;6194435;28;20683;-69
2022/03/20 07:24:40;;;;;;;5.20;3.60;;;19.40;45.30;;;;;;6194193;28;20402;-69
2022/03/20 07:31:00;;;;;;;5.78;3.75;;;19.40;45.30;;;;;;6193506;28;20117;-69
2022/03/20 07:34:00;;;;;;;5.10;3.00;;;19.50;45.40;;;;;;6194374;28;20096;-69
2022/03/20 07:37:03;;;;;;;6.05;3.53;;;19.40;45.30;;;;;;6194087;28;20023;-69
2022/03/20 07:40:05;;;;;;;5.70;3.83;;;19.40;45.20;;;;;;6194445;28;20058;-69
2022/03/20 07:43:05;;;;;;;4.97;3.45;;;19.40;45.30;;;;;;6193789;28;20394;-69
2022/03/20 07:46:06;;;;;;;6.20;3.42;;;19.40;45.30;;;;;;6193586;28;20026;-69
2022/03/20 07:49:07;;;;;;;7.03;3.90;;;19.40;45.10;;;;;;6194734;28;20482;-69
2022/03/20 07:52:08;;;;;;;6.43;3.78;;;19.40;45.20;;;;;;6193664;28;20481;-69
2022/03/20 07:55:09;;;;;;;6.30;4.07;;;19.40;45.20;;;;;;6194277;28;20046;-69
2022/03/20 07:58:10;;;;;;;6.78;3.83;;;19.40;45.30;;;;;;6193526;28;20055;-69
2022/03/20 08:01:10;;;;;;;6.40;4.03;;;19.40;45.40;;;;;;6194123;28;20034;-69
2022/03/20 08:04:11;;;;;;;6.60;3.95;;;19.40;45.30;;;;;;6193681;28;20445;-69
2022/03/20 08:07:12;;;;;;;6.28;3.83;;;19.40;45.20;;;;;;6193578;28;20029;-69
2022/03/20 08:10:13;;;;;;;6.13;3.70;;;19.40;45.10;;;;;;6197750;28;20053;-69
2022/03/20 08:13:14;;;;;;;6.88;4.00;;;19.40;45.20;;;;;;6198427;28;20050;-69
2022/03/20 08:16:16;;;;;;;5.82;3.85;;;19.40;45.10;;;;;;6198096;28;20030;-69
2022/03/20 08:19:19;;;;;;;6.40;4.05;;;19.40;45.20;;;;;;6199168;28;20027;-69
2022/03/20 08:22:19;;;;;;;5.20;3.80;;;19.40;45.20;;;;;;6198190;28;20040;-69
2022/03/20 08:25:20;;;;;;;6.60;3.75;;;19.40;45.20;;;;;;6198574;28;20034;-69
2022/03/20 08:28:20;;;;;;;6.28;3.80;;;19.40;45.30;;;;;;6197837;28;20066;-68
2022/03/20 08:31:21;;;;;;;7.13;3.88;;;19.40;45.30;;;;;;6197789;28;20393;-69
2022/03/20 08:34:21;;;;;;;4.97;3.75;;;19.40;45.30;;;;;;6198191;28;20026;-69
2022/03/20 08:37:22;;;;;;;7.10;3.97;;;19.40;45.20;;;;;;6198141;28;20531;-69
2022/03/20 08:40:24;;;;;;;6.43;3.88;;;19.40;45.30;;;;;;6197755;28;20540;-69
2022/03/20 08:43:24;;;;;;;5.55;3.67;;;19.40;45.30;;;;;;6197394;28;20065;-69
2022/03/20 08:46:25;;;;;;;5.53;3.40;;;19.40;45.30;;;;;;6196881;28;20084;-69
2022/03/20 08:49:25;;;;;;;6.88;3.92;;;19.40;45.40;;;;;;6198299;28;20026;-69
2022/03/20 08:52:26;;;;;;;6.10;3.78;;;19.40;45.20;;;;;;6197511;28;20026;-69
2022/03/20 08:55:27;;;;;;;7.50;3.70;;;19.40;45.20;;;;;;6197058;28;20022;-69
2022/03/20 08:58:27;;;;;;;6.50;4.20;;;19.40;45.40;;;;;;6197497;28;20042;-69
2022/03/20 09:01:28;;;;;;;6.75;4.05;;;19.40;45.30;;;;;;6197462;28;20445;-69
2022/03/20 09:04:29;;;;;;;6.03;4.05;;;19.40;45.30;;;;;;6197596;28;20026;-69
2022/03/20 09:07:29;;;;;;;6.75;4.22;;;19.40;45.30;;;;;;6197541;28;20027;-69
2022/03/20 09:10:31;;;;;;;7.82;4.45;;;19.40;45.50;;;;;;6197282;28;20030;-69
2022/03/20 09:13:31;;;;;;;6.00;3.72;;;19.40;45.50;;;;;;6197160;28;20026;-69
2022/03/20 09:19:55;;;;;;;6.13;4.07;;;19.40;45.40;;;;;;6195767;28;20478;-69
2022/03/20 09:22:56;;;;;;;5.97;4.25;;;19.40;45.30;;;;;;6197098;28;20026;-69
2022/03/20 09:25:56;;;;;;;6.78;4.15;;;19.40;45.40;;;;;;6196398;28;20050;-69
2022/03/20 09:28:57;;;;;;;5.53;3.75;;;19.40;45.40;;;;;;6196542;28;20298;-69
2022/03/20 09:31:58;;;;;;;7.03;4.20;;;19.40;45.40;;;;;;6196806;28;20029;-69
2022/03/20 09:34:58;;;;;;;6.53;3.97;;;19.40;45.30;;;;;;6196789;28;20033;-69
2022/03/20 09:37:59;;;;;;;6.72;3.97;;;19.40;45.30;;;;;;6196490;28;20037;-69
2022/03/20 09:41:07;;;;;;;5.20;3.58;;;19.40;45.40;;;;;;6196887;28;20061;-69
2022/03/20 09:44:07;;;;;;;5.45;3.67;;;19.40;45.40;;;;;;6196106;28;20092;-69
2022/03/20 09:47:12;;;;;;;6.40;4.10;;;19.40;45.40;;;;;;6197051;28;20029;-69
2022/03/20 09:50:14;;;;;;;6.20;4.13;;;19.40;45.40;;;;;;6196922;28;20141;-69
2022/03/20 09:53:15;;;;;;;6.07;3.90;;;19.40;45.40;;;;;;6196495;28;20037;-69
2022/03/20 09:56:16;;;;;;;7.65;4.10;;;19.40;45.40;;;;;;6196034;28;20482;-69
2022/03/20 09:59:16;;;;;;;7.35;4.38;;;19.40;45.30;;;;;;6196171;28;20026;-69
2022/03/20 10:02:17;;;;;;;6.75;4.18;;;19.40;45.40;;;;;;6195981;28;20042;-69
2022/03/20 10:05:28;;;;;;;7.13;4.22;;;19.40;45.40;;;;;;6195785;28;20084;-69
2022/03/20 10:08:28;;;;;;;6.25;4.30;;;19.40;45.30;;;;;;6195849;28;20033;-69
2022/03/20 10:11:29;;;;;;;6.63;3.83;;;19.40;45.10;;;;;;6195827;28;20474;-69
2022/03/20 10:14:30;;;;;;;7.50;4.45;;;19.40;45.30;;;;;;6195867;28;20030;-69
2022/03/20 10:17:31;;;;;;;4.53;3.45;;;19.40;45.30;;;;;;6195603;28;20033;-69
2022/03/20 10:20:42;;;;;;;5.22;3.75;;;19.40;45.30;;;;;;6196565;28;20033;-69
2022/03/20 10:23:42;;;;;;;6.22;3.78;;;19.40;46.00;;;;;;6195298;28;20038;-69
2022/03/20 10:26:43;;;;;;;6.57;4.10;;;19.40;45.30;;;;;;6195085;28;20049;-69
2022/03/20 10:29:49;;;;;;;8.18;4.43;;;19.50;45.40;;;;;;6195051;28;20027;-69
2022/03/20 10:32:50;;;;;;;7.57;4.57;;;19.50;45.40;;;;;;6195320;28;20117;-69
2022/03/20 10:36:20;;;;;;;6.40;3.70;;;19.40;45.30;;;;;;6195298;28;20030;-69
2022/03/20 10:39:25;;;;;;;7.15;4.43;;;19.40;45.30;;;;;;6195083;28;20092;-69
2022/03/20 10:42:26;;;;;;;7.07;4.60;;;19.40;45.30;;;;;;6195010;28;20034;-69
2022/03/20 10:45:26;;;;;;;7.00;4.03;;;19.40;45.30;;;;;;6195136;28;20505;-69
2022/03/20 10:48:43;;;;;;;6.70;3.88;;;19.50;45.30;;;;;;6194950;28;20146;-69
2022/03/20 10:51:43;;;;;;;6.00;3.70;;;19.40;45.20;;;;;;6194832;28;20022;-69
2022/03/20 10:54:46;;;;;;;5.93;4.07;;;19.40;45.20;;;;;;6194785;28;20211;-69
2022/03/20 10:57:47;;;;;;;6.28;4.10;;;19.50;45.30;;;;;;6194904;28;20034;-69
2022/03/20 11:00:47;;;;;;;7.20;4.38;;;19.50;45.40;;;;;;6194996;28;20326;-69
2022/03/20 11:03:49;;;;;;;6.72;3.90;;;19.40;45.30;;;;;;6194599;28;20070;-69
2022/03/20 11:06:54;;;;;;;5.78;4.13;;;19.40;45.30;;;;;;6194463;28;20402;-69
2022/03/20 11:09:55;;;;;;;7.47;4.50;;;19.50;46.00;;;;;;6194193;28;20486;-69
2022/03/20 11:12:57;;;;;;;5.75;4.20;;;19.40;45.20;;;;;;6194391;28;20102;-69
2022/03/20 11:15:59;;;;;;;6.90;4.18;;;19.50;45.30;;;;;;6194576;28;20030;-69
2022/03/20 11:19:03;;;;;;;6.10;3.65;;;19.50;45.40;;;;;;6194143;28;20030;-69
2022/03/20 11:22:05;;;;;;;7.25;4.53;;;19.50;45.30;;;;;;6179356;28;20044;-69
2022/03/20 11:25:07;;;;;;;6.45;3.90;;;19.50;45.30;;;;;;6190817;28;20027;-69
2022/03/20 11:28:09;;;;;;;7.93;4.32;;;19.40;45.20;;;;;;6195170;28;20456;-69
2022/03/20 11:31:11;;;;;;;6.80;4.18;;;19.50;45.30;;;;;;6191323;28;20057;-69
2022/03/20 11:34:12;;;;;;;7.15;4.40;;;19.50;45.20;;;;;;6192039;28;20018;-69
2022/03/20 11:37:16;;;;;;;7.10;4.38;;;19.50;45.30;;;;;;6191797;28;20061;-69
2022/03/20 11:40:22;;;;;;;5.75;3.83;;;19.40;45.20;;;;;;6191736;28;20025;-69
2022/03/20 11:43:23;;;;;;;;;;;19.50;45.20;;;;;;6190652;28;20100;-69
2022/03/20 11:46:29;;;;;;;6.38;4.18;;;19.50;45.30;;;;;;6192093;28;20198;-69
2022/03/20 11:49:30;;;;;;;;;;;19.50;45.30;;;;;;6185377;28;20035;-69
2022/03/20 11:52:58;;;;;;;7.75;4.63;;;19.50;45.30;;;;;;6190511;28;20361;-69
2022/03/20 11:55:58;;;;;;;9.18;4.28;;;19.50;45.30;;;;;;6191726;28;20323;-68
2022/03/20 11:58:59;;;;;;;7.95;4.25;;;19.50;45.30;;;;;;6197550;28;20026;-69
2022/03/20 12:02:02;;;;;;;7.20;3.85;;;19.40;45.30;;;;;;6191262;28;20417;-69
2022/03/20 12:05:20;;;;;;;7.13;3.83;;;19.40;45.30;;;;;;6191804;28;20037;-69
2022/03/20 12:08:40;;;;;;;12.23;4.20;;;19.40;45.30;;;;;;6191657;28;20026;-69
2022/03/20 12:12:05;;;;;;;6.22;3.95;;;19.40;45.30;;;;;;6190686;28;20022;-69
2022/03/20 12:15:10;;;;;;;8.48;4.45;;;19.40;45.60;;;;;;6191626;28;20034;-66
2022/03/20 12:18:11;;;;;;;6.13;4.07;;;19.40;45.30;;;;;;6190584;28;20100;-69
2022/03/20 12:21:12;;;;;;;11.57;4.22;;;19.40;45.30;;;;;;6191094;28;20034;-69
2022/03/20 12:24:34;;;;;;;9.70;4.45;;;19.40;45.30;;;;;;6191189;28;20486;-69
2022/03/20 12:27:36;;;;;;;5.70;3.97;;;19.40;45.30;;;;;;6194317;28;20057;-69
2022/03/20 12:30:37;;;;;;;6.88;4.07;;;19.50;45.40;;;;;;6189939;28;20035;-69
2022/03/20 12:33:38;;;;;;;6.75;4.10;;;19.50;45.40;;;;;;6190971;28;20029;-69
2022/03/20 12:36:38;;;;;;;7.05;3.88;;;19.40;45.40;;;;;;6191684;28;20489;-69
2022/03/20 12:39:54;;;;;;;5.55;3.80;;;19.50;45.40;;;;;;6191276;28;20425;-69
2022/03/20 12:43:08;;;;;;;7.82;4.07;;;19.40;45.40;;;;;;6205649;28;20100;-69
2022/03/20 12:46:10;;;;;;;6.13;3.92;;;19.50;45.50;;;;;;6191638;28;20042;-69
2022/03/20 12:49:16;;;;;;;6.85;4.10;;;19.50;45.50;;;;;;6196172;28;20026;-69
2022/03/20 12:52:19;;;;;;;7.70;3.95;;;19.50;45.50;;;;;;6214613;28;20080;-69
2022/03/20 12:55:25;;;;;;;8.10;4.28;;;19.40;45.40;;;;;;6218266;28;20080;-69
2022/03/20 12:58:27;;;;;;;7.90;4.22;;;19.50;45.50;;;;;;6219593;28;20037;-70
2022/03/20 13:01:37;;;;;;;8.40;3.90;;;19.50;45.50;;;;;;6219123;28;20029;-69
2022/03/20 13:04:38;;;;;;;10.27;4.80;;;19.50;45.50;;;;;;6219548;28;20034;-69
2022/03/20 13:07:41;;;;;;;5.85;3.88;;;19.50;45.50;;;;;;6219276;28;20088;-69
2022/03/20 13:10:42;;;;;;;7.80;3.95;;;19.50;45.60;;;;;;6219243;28;20169;-69
2022/03/20 13:13:43;;;;;;;7.82;4.03;;;19.50;46.20;;;;;;6218756;28;20485;-69
2022/03/20 13:16:58;;;;;;;7.03;3.85;;;19.50;45.60;;;;;;6196363;28;20038;-69
2022/03/20 13:20:14;;;;;;;;;;;19.40;45.50;;;;;;6171515;28;20365;-69
2022/03/20 13:23:17;;;;;;;6.70;4.70;;;19.50;45.60;;;;;;6170276;28;20480;-70
2022/03/20 13:26:19;;;;;;;5.75;3.55;;;19.50;45.60;;;;;;6191417;28;20078;-69
2022/03/20 13:29:23;;;;;;;7.90;4.03;;;19.50;45.60;;;;;;6194487;28;20501;-69
2022/03/20 13:32:23;;;;;;;6.75;4.15;;;19.50;45.60;;;;;;6194594;28;20026;-69
2022/03/20 13:35:24;;;;;;;7.32;3.90;;;19.50;45.60;;;;;;6194811;28;20027;-69
2022/03/20 13:38:32;;;;;;;7.70;4.00;;;19.50;45.60;;;;;;6194524;28;20027;-70
2022/03/20 13:41:40;;;;;;;6.28;3.80;;;19.50;45.60;;;;;;6177127;28;20023;-69
2022/03/20 13:44:41;;;;;;;7.00;3.88;;;19.50;45.60;;;;;;6192321;28;20038;-69
2022/03/20 13:47:42;;;;;;;8.30;4.45;;;19.50;45.60;;;;;;6172324;28;20565;-69
2022/03/20 13:50:42;;;;;;;9.45;3.85;;;19.50;45.60;;;;;;6198923;28;20031;-69
2022/03/20 13:53:43;;;;;;;6.30;3.75;;;19.50;45.60;;;;;;6193626;28;20437;-69
2022/03/20 13:56:49;;;;;;;9.55;4.18;;;19.50;46.20;;;;;;6193501;28;20109;-69
2022/03/20 13:59:52;;;;;;;5.57;3.55;;;19.50;45.60;;;;;;6193569;28;20419;-69
2022/03/20 14:02:53;;;;;;;8.88;4.10;;;19.50;45.60;;;;;;6184371;28;20089;-69
2022/03/20 14:05:55;;;;;;;7.88;4.03;;;19.50;45.60;;;;;;6192708;28;20083;-69
2022/03/20 14:08:55;;;;;;;8.32;4.20;;;19.50;45.50;;;;;;6192605;28;20026;-69
2022/03/20 14:11:56;;;;;;;6.35;3.67;;;19.50;45.60;;;;;;6197781;28;20029;-69
2022/03/20 14:15:04;;;;;;;8.05;4.25;;;19.50;45.60;;;;;;6216808;28;20503;-69
2022/03/20 14:18:16;;;;;;;7.18;4.22;;;19.50;45.60;;;;;;6185175;28;20057;-69
2022/03/20 14:21:23;;;;;;;5.60;3.55;;;19.50;45.60;;;;;;6190367;28;20077;-69
2022/03/20 14:24:23;;;;;;;8.60;4.15;;;19.40;45.40;;;;;;6192110;28;20050;-69
2022/03/20 14:27:27;;;;;;;9.88;3.88;;;19.50;45.60;;;;;;6191580;28;20050;-69
2022/03/20 14:40:41;;;;;;;;;;;19.50;45.50;;;;;;6168129;28;20490;-69
2022/03/20 14:43:42;;;;;;;7.97;3.97;;;19.50;45.50;;;;;;6181341;28;20016;-69
2022/03/20 14:46:44;;;;;;;12.38;3.97;;;19.50;45.60;;;;;;6191794;28;20023;-69
2022/03/20 14:49:45;;;;;;;9.32;3.80;;;19.50;45.70;;;;;;6200381;28;20069;-69
2022/03/20 14:52:48;;;;;;;7.60;3.67;;;19.50;45.60;;;;;;6215597;28;20022;-69
2022/03/20 14:55:48;;;;;;;7.93;4.35;;;19.50;45.50;;;;;;6216223;28;20033;-69
2022/03/20 14:58:49;;;;;;;6.40;3.97;;;19.50;45.50;;;;;;6215606;28;20030;-69
2022/03/20 15:01:51;;;;;;;6.78;3.85;;;19.50;45.50;;;;;;6215009;28;20030;-69
2022/03/20 15:04:52;;;;;;;7.18;4.00;;;19.50;45.50;;;;;;6215556;28;20121;-69
2022/03/20 15:11:26;;;;;;;6.85;4.05;;;19.50;45.50;;;;;;6197292;28;20030;-69
2022/03/20 15:14:27;;;;;;;;;;;19.50;45.70;;;;;;6191180;28;20033;-69
2022/03/20 15:17:30;;;;;;;7.68;3.90;;;19.50;45.40;;;;;;6172449;28;19965;-69
2022/03/20 15:20:30;;;;;;;8.35;3.97;;;19.60;45.60;;;;;;6166838;28;20031;-69
2022/03/20 15:23:31;;;;;;;10.45;4.10;;;19.60;45.60;;;;;;6165989;28;20176;-69
2022/03/20 15:26:34;;;;;;;7.35;3.88;;;19.70;45.30;;;;;;6165479;28;20484;-69
2022/03/20 15:29:34;;;;;;;8.90;4.00;;;19.70;45.00;;;;;;6190166;28;20026;-69
2022/03/20 15:32:35;;;;;;;9.77;4.15;;;19.70;45.00;;;;;;6190083;28;20022;-70
2022/03/20 15:35:35;;;;;;;10.65;4.05;;;19.70;44.70;;;;;;6190573;28;20482;-70
2022/03/20 15:38:37;;;;;;;8.20;4.07;;;19.70;44.80;;;;;;6190230;28;20318;-70
2022/03/20 15:41:39;;;;;;;6.97;4.10;;;19.70;44.80;;;;;;6190650;28;20030;-70
2022/03/20 15:44:39;;;;;;;8.23;4.32;;;19.70;44.60;;;;;;6190156;28;20030;-71
2022/03/20 15:47:41;;;;;;;7.53;4.35;;;19.70;44.40;;;;;;6178298;28;20022;-70
2022/03/20 15:50:41;;;;;;;6.50;3.75;;;19.80;44.20;;;;;;6190205;28;20041;-70
2022/03/20 15:53:42;;;;;;;9.68;3.92;;;19.70;44.40;;;;;;6170529;28;20382;-70
2022/03/20 15:56:43;;;;;;;7.78;3.70;;;19.70;44.70;;;;;;6166979;28;20104;-70
2022/03/20 15:59:43;;;;;;;6.93;3.70;;;19.70;44.80;;;;;;6166458;28;20117;-70
2022/03/20 16:02:44;;;;;;;7.80;3.80;;;19.70;44.90;;;;;;6165989;28;20148;-70
2022/03/20 16:05:45;;;;;;;9.27;4.18;;;19.70;45.00;;;;;;6184042;28;20026;-70
2022/03/20 16:08:46;;;;;;;7.57;3.67;;;19.70;45.10;;;;;;6190174;28;20019;-70
2022/03/20 16:11:47;;;;;;;7.28;3.85;;;19.70;45.10;;;;;;6189367;28;20029;-70
2022/03/20 16:14:48;;;;;;;5.22;3.33;;;19.70;45.20;;;;;;6189440;28;20098;-70
2022/03/20 16:17:48;;;;;;;7.40;4.28;;;19.70;45.20;;;;;;6170334;28;20035;-70
2022/03/20 16:20:50;;;;;;;5.78;3.65;;;19.60;45.10;;;;;;6177598;28;20033;-70
2022/03/20 16:30:30;;;;;;;6.43;3.63;;;19.60;45.20;;;;;;6193763;28;20022;-70
2022/03/20 16:33:32;;;;;;;6.60;4.05;;;19.60;45.30;;;;;;6194077;28;20089;-70
2022/03/20 16:36:33;;;;;;;4.45;3.20;;;19.60;45.20;;;;;;6194438;28;20030;-70
2022/03/20 16:39:33;;;;;;;6.38;3.55;;;19.60;45.30;;;;;;6194277;28;20497;-70